createdAt,value
2023-02-12T00:00:06.617Z,6.63
2023-02-12T00:02:41.728Z,6.93
2023-02-12T00:05:08.512Z,6.95
2023-02-12T00:07:35.199Z,7.13
2023-02-12T00:10:01.989Z,7.00
2023-02-12T00:12:28.594Z,7.55
2023-02-12T00:14:55.216Z,7.45
2023-02-12T00:17:21.929Z,7.60
2023-02-12T00:19:49.025Z,8.15
2023-02-12T00:22:15.794Z,7.32
2023-02-12T00:24:42.591Z,7.47
2023-02-12T00:27:09.366Z,7.70
2023-02-12T00:29:37.527Z,7.80
2023-02-12T00:32:05.631Z,7.85
2023-02-12T00:34:32.432Z,7.72
2023-02-12T00:36:59.342Z,7.13
2023-02-12T00:39:26.936Z,7.38
2023-02-12T00:41:53.532Z,7.82
2023-02-12T00:44:20.226Z,8.40
2023-02-12T00:46:46.928Z,8.07
2023-02-12T00:49:14.292Z,7.90
2023-02-12T00:51:41.036Z,7.72
2023-02-12T00:54:10.243Z,7.75
2023-02-12T00:56:37.062Z,7.90
2023-02-12T00:59:03.894Z,8.18
2023-02-12T01:01:30.799Z,7.95
2023-02-12T01:03:57.702Z,8.20
2023-02-12T01:06:26.172Z,8.23
2023-02-12T01:08:53.623Z,7.70
2023-02-12T01:11:20.596Z,7.95
2023-02-12T01:13:48.681Z,7.75
2023-02-12T01:16:17.775Z,7.75
2023-02-12T01:18:45.829Z,8.43
2023-02-12T01:21:19.182Z,8.50
2023-02-12T01:23:46.274Z,8.30
2023-02-12T01:26:14.056Z,8.38
2023-02-12T01:28:42.589Z,8.52
2023-02-12T01:31:14.792Z,8.63
2023-02-12T01:33:42.690Z,8.07
2023-02-12T01:36:11.259Z,7.47
2023-02-12T01:38:38.232Z,7.80
2023-02-12T01:41:14.175Z,7.88
2023-02-12T01:43:41.716Z,7.80
2023-02-12T01:46:13.492Z,7.90
2023-02-12T01:48:43.854Z,7.90
2023-02-12T01:51:14.915Z,7.78
2023-02-12T01:53:47.513Z,7.70
2023-02-12T01:56:15.076Z,8.45
2023-02-12T01:58:44.037Z,7.97
2023-02-12T02:01:17.134Z,8.07
2023-02-12T02:03:46.892Z,7.70
2023-02-12T02:06:23.663Z,8.45
2023-02-12T02:08:50.993Z,7.03
2023-02-12T02:11:36.332Z,7.95
2023-02-12T02:14:23.869Z,7.93
2023-02-12T02:17:01.727Z,7.72
2023-02-12T02:20:02.185Z,7.45
2023-02-12T02:22:43.521Z,7.80
2023-02-12T02:25:46.818Z,7.47
2023-02-12T02:28:54.564Z,7.13
2023-02-12T02:31:33.193Z,7.93
2023-02-12T02:34:05.276Z,8.30
2023-02-12T02:36:59.182Z,7.63
2023-02-12T02:39:35.663Z,7.90
2023-02-12T02:42:17.327Z,8.10
2023-02-12T02:44:54.299Z,7.43
2023-02-12T02:47:35.891Z,8.38
2023-02-12T02:50:08.013Z,8.00
2023-02-12T02:52:43.521Z,8.05
2023-02-12T02:55:12.949Z,7.70
2023-02-12T03:00:15.883Z,8.60
2023-02-12T03:02:50.283Z,7.78
2023-02-12T03:05:23.634Z,8.13
2023-02-12T03:07:56.208Z,8.18
2023-02-12T03:10:31.927Z,8.68
2023-02-12T03:13:25.792Z,8.80
2023-02-12T03:16:07.874Z,8.43
2023-02-12T03:18:41.520Z,7.65
2023-02-12T03:21:20.487Z,7.68
2023-02-12T03:23:55.351Z,8.32
2023-02-12T03:26:32.611Z,8.35
2023-02-12T03:28:59.333Z,7.72
2023-02-12T03:31:37.812Z,8.25
2023-02-12T03:34:28.037Z,8.00
2023-02-12T03:37:01.714Z,8.48
2023-02-12T03:39:49.789Z,8.48
2023-02-12T03:42:24.359Z,7.97
2023-02-12T03:45:01.705Z,8.40
2023-02-12T03:47:42.986Z,8.55
2023-02-12T03:50:37.068Z,8.02
2023-02-12T03:53:05.326Z,8.10
2023-02-12T03:55:36.028Z,8.55
2023-02-12T03:58:06.069Z,8.10
2023-02-12T04:00:32.882Z,7.90
2023-02-12T04:03:00.010Z,8.48
2023-02-12T04:05:28.035Z,7.85
2023-02-12T04:07:57.676Z,8.90
2023-02-12T04:10:37.695Z,7.68
2023-02-12T04:13:24.618Z,8.20
2023-02-12T04:15:59.360Z,7.32
2023-02-12T04:18:44.872Z,8.75
2023-02-12T04:21:23.816Z,8.43
2023-02-12T04:24:06.804Z,8.65
2023-02-12T04:26:36.162Z,7.55
2023-02-12T04:29:12.281Z,8.25
2023-02-12T04:31:49.883Z,8.18
2023-02-12T04:34:28.332Z,8.02
2023-02-12T04:37:04.418Z,7.28
2023-02-12T04:39:35.973Z,7.68
2023-02-12T04:42:04.070Z,7.60
2023-02-12T04:44:34.747Z,8.55
2023-02-12T04:47:01.730Z,8.65
2023-02-12T04:49:28.474Z,8.43
2023-02-12T04:51:55.342Z,7.22
2023-02-12T04:54:23.359Z,8.10
2023-02-12T04:56:50.824Z,8.00
2023-02-12T04:59:18.015Z,8.80
2023-02-12T05:01:45.719Z,8.30
2023-02-12T05:04:15.093Z,7.47
2023-02-12T05:06:43.239Z,9.30
2023-02-12T05:09:14.015Z,8.88
2023-02-12T05:11:40.798Z,8.95
2023-02-12T05:14:07.582Z,8.57
2023-02-12T05:16:34.763Z,8.75
2023-02-12T05:19:01.532Z,7.85
2023-02-12T05:21:28.369Z,8.55
2023-02-12T05:23:55.213Z,8.18
2023-02-12T05:26:22.813Z,8.10
2023-02-12T05:28:49.615Z,8.05
2023-02-12T05:31:21.129Z,9.15
2023-02-12T05:33:49.741Z,8.05
2023-02-12T05:36:19.994Z,9.00
2023-02-12T05:38:47.282Z,8.05
2023-02-12T05:41:19.722Z,8.63
2023-02-12T05:43:49.435Z,9.27
2023-02-12T05:46:18.041Z,8.18
2023-02-12T05:48:45.165Z,8.23
2023-02-12T05:51:18.148Z,8.35
2023-02-12T05:53:44.812Z,8.10
2023-02-12T05:56:21.999Z,8.82
2023-02-12T05:58:53.437Z,7.68
2023-02-12T06:01:30.803Z,8.77
2023-02-12T06:04:02.976Z,8.70
2023-02-12T06:06:31.303Z,9.13
2023-02-12T06:08:58.659Z,8.23
2023-02-12T06:11:25.555Z,9.05
2023-02-12T06:13:52.316Z,8.20
2023-02-12T06:16:24.682Z,8.65
2023-02-12T06:18:52.306Z,8.65
2023-02-12T06:21:20.492Z,8.45
2023-02-12T06:23:48.303Z,8.60
2023-02-12T06:26:15.695Z,8.80
2023-02-12T06:28:42.424Z,8.75
2023-02-12T06:31:22.942Z,9.02
2023-02-12T06:33:50.401Z,8.63
2023-02-12T06:36:17.562Z,8.30
2023-02-12T06:38:44.785Z,8.40
2023-02-12T06:41:12.066Z,8.25
2023-02-12T06:43:39.162Z,8.60
2023-02-12T06:46:06.976Z,9.07
2023-02-12T06:48:34.347Z,9.18
2023-02-12T06:51:09.215Z,8.60
2023-02-12T06:53:36.037Z,9.02
2023-02-12T06:56:11.235Z,8.38
2023-02-12T06:58:44.596Z,8.65
2023-02-12T07:01:22.820Z,8.55
2023-02-12T07:03:52.557Z,8.63
2023-02-12T07:06:20.525Z,8.50
2023-02-12T07:08:47.991Z,9.27
2023-02-12T07:11:14.918Z,9.00
2023-02-12T07:13:42.344Z,8.95
2023-02-12T07:16:14.587Z,9.30
2023-02-12T07:18:42.640Z,8.90
2023-02-12T07:21:11.909Z,9.02
2023-02-12T07:23:39.212Z,8.80
2023-02-12T07:26:11.838Z,8.85
2023-02-12T07:28:39.161Z,9.15
2023-02-12T07:31:17.766Z,9.57
2023-02-12T07:33:45.130Z,9.00
2023-02-12T07:36:15.217Z,10.07
2023-02-12T07:38:42.516Z,11.13
2023-02-12T07:41:10.994Z,10.98
2023-02-12T07:43:38.690Z,10.80
2023-02-12T07:46:09.530Z,11.20
2023-02-12T07:48:36.259Z,10.73
2023-02-12T07:51:05.561Z,11.98
2023-02-12T07:53:32.380Z,11.27
2023-02-12T07:56:12.986Z,11.25
2023-02-12T07:58:41.321Z,11.88
2023-02-12T08:01:13.572Z,11.73
2023-02-12T08:03:40.516Z,11.48
2023-02-12T08:06:13.071Z,10.93
2023-02-12T08:08:39.750Z,11.57
2023-02-12T08:11:08.549Z,11.30
2023-02-12T08:13:36.570Z,11.70
2023-02-12T08:16:06.625Z,10.57
2023-02-12T08:18:34.214Z,11.57
2023-02-12T08:21:03.990Z,11.25
2023-02-12T08:23:31.362Z,12.05
2023-02-12T08:26:08.333Z,11.70
2023-02-12T08:28:35.908Z,11.98
2023-02-12T08:31:04.430Z,11.63
2023-02-12T08:33:31.412Z,10.77
2023-02-12T08:36:12.455Z,11.85
2023-02-12T08:38:40.187Z,11.38
2023-02-12T08:41:10.294Z,11.35
2023-02-12T08:43:38.227Z,11.20
2023-02-12T08:46:07.090Z,11.90
2023-02-12T08:48:34.489Z,11.88
2023-02-12T08:51:19.163Z,10.68
2023-02-12T08:53:48.156Z,10.73
2023-02-12T08:56:17.411Z,11.15
2023-02-12T08:58:44.245Z,11.90
2023-02-12T09:01:17.288Z,12.65
2023-02-12T09:03:45.229Z,12.65
2023-02-12T09:06:12.743Z,12.02
2023-02-12T09:08:40.260Z,13.30
2023-02-12T09:11:09.385Z,12.40
2023-02-12T09:13:36.961Z,12.15
2023-02-12T09:16:05.149Z,13.02
2023-02-12T09:18:32.059Z,11.73
2023-02-12T09:21:04.324Z,12.02
2023-02-12T09:23:31.470Z,11.38
2023-02-12T09:25:58.599Z,11.98
2023-02-12T09:28:26.032Z,10.52
2023-02-12T09:30:52.839Z,11.90
2023-02-12T09:33:19.639Z,11.45
2023-02-12T09:35:46.390Z,11.77
2023-02-12T09:38:13.393Z,11.60
2023-02-12T09:41:04.404Z,11.45
2023-02-12T09:43:40.076Z,11.43
2023-02-12T09:46:12.925Z,10.88
2023-02-12T09:48:54.885Z,11.18
2023-02-12T09:51:23.190Z,11.73
2023-02-12T09:54:05.271Z,11.77
2023-02-12T09:56:35.625Z,11.35
2023-02-12T09:59:23.094Z,11.02
2023-02-12T10:01:49.802Z,10.50
2023-02-12T10:04:16.489Z,11.20
2023-02-12T10:06:53.083Z,11.18
2023-02-12T10:09:29.246Z,11.18
2023-02-12T10:12:17.179Z,10.65
2023-02-12T10:14:54.499Z,11.07
2023-02-12T10:17:38.065Z,10.77
2023-02-12T10:20:42.264Z,11.70
2023-02-12T10:23:27.781Z,10.05
2023-02-12T10:26:13.164Z,10.45
2023-02-12T10:28:41.617Z,10.07
2023-02-12T10:32:13.283Z,9.93
2023-02-12T10:34:42.669Z,10.25
2023-02-12T10:39:59.955Z,10.20
2023-02-12T10:42:41.018Z,10.50
2023-02-12T10:45:14.344Z,10.70
2023-02-12T10:47:41.048Z,9.93
2023-02-12T10:50:22.479Z,11.10
2023-02-12T10:52:56.368Z,10.25
2023-02-12T10:55:34.508Z,10.30
2023-02-12T10:58:03.874Z,10.95
2023-02-12T11:00:38.371Z,11.13
2023-02-12T11:03:14.827Z,11.95
2023-02-12T11:05:44.287Z,10.65
2023-02-12T11:08:30.382Z,11.20
2023-02-12T11:11:05.783Z,12.48
2023-02-12T11:13:32.528Z,11.40
2023-02-12T11:16:01.120Z,11.15
2023-02-12T11:18:33.001Z,10.35
2023-02-12T11:21:23.433Z,10.93
2023-02-12T11:23:50.308Z,10.98
2023-02-12T11:26:20.284Z,10.85
2023-02-12T11:29:00.523Z,11.45
2023-02-12T11:31:30.302Z,10.85
2023-02-12T11:34:10.132Z,11.10
2023-02-12T11:36:44.012Z,10.63
2023-02-12T11:39:32.598Z,10.57
2023-02-12T11:42:06.859Z,10.88
2023-02-12T11:44:39.931Z,10.20
2023-02-12T11:47:12.236Z,11.00
2023-02-12T11:49:49.003Z,12.30
2023-02-12T11:52:24.560Z,12.20
2023-02-12T11:54:56.905Z,13.07
2023-02-12T11:57:47.371Z,12.45
2023-02-12T12:00:29.118Z,12.57
2023-02-12T12:03:07.123Z,12.50
2023-02-12T12:05:44.945Z,11.02
2023-02-12T12:08:19.645Z,11.00
2023-02-12T12:10:56.797Z,11.48
2023-02-12T12:13:40.228Z,11.27
2023-02-12T12:16:34.690Z,12.18
2023-02-12T12:19:49.754Z,12.05
2023-02-12T12:22:28.316Z,11.15
2023-02-12T12:24:55.076Z,11.37
2023-02-12T12:28:03.187Z,11.52
2023-02-12T12:30:53.833Z,9.55
2023-02-12T12:33:29.274Z,10.68
2023-02-12T12:36:02.277Z,10.35
2023-02-12T12:38:45.373Z,10.88
2023-02-12T12:41:19.917Z,10.70
2023-02-12T12:43:52.538Z,10.57
2023-02-12T12:46:41.976Z,11.25
2023-02-12T12:49:29.182Z,10.27
2023-02-12T12:52:18.412Z,10.38
2023-02-12T12:55:24.160Z,8.95
2023-02-12T12:58:02.790Z,9.73
2023-02-12T13:00:35.432Z,9.63
2023-02-12T13:03:13.813Z,9.60
2023-02-12T13:06:05.095Z,10.30
2023-02-12T13:09:04.561Z,8.82
2023-02-12T13:11:57.852Z,9.57
2023-02-12T13:14:47.609Z,8.70
2023-02-12T13:17:26.059Z,9.63
2023-02-12T13:19:57.091Z,8.60
2023-02-12T13:22:57.531Z,8.88
2023-02-12T13:25:30.962Z,8.68
2023-02-12T13:28:00.608Z,8.40
2023-02-12T13:30:33.978Z,8.25
2023-02-12T13:33:20.639Z,8.55
2023-02-12T13:35:52.873Z,8.02
2023-02-12T13:38:26.098Z,8.65
2023-02-12T13:40:59.983Z,9.02
2023-02-12T13:44:06.492Z,8.55
2023-02-12T13:46:50.902Z,8.93
2023-02-12T13:49:20.067Z,9.48
2023-02-12T13:51:49.059Z,9.00
2023-02-12T13:54:24.458Z,9.13
2023-02-12T13:56:57.522Z,10.55
2023-02-12T13:59:30.549Z,11.05
2023-02-12T14:01:58.772Z,10.60
2023-02-12T14:04:52.032Z,10.63
2023-02-12T14:07:20.469Z,9.93
2023-02-12T14:09:47.004Z,11.13
2023-02-12T14:12:29.854Z,10.35
2023-02-12T14:15:06.886Z,10.02
2023-02-12T14:17:33.635Z,10.60
2023-02-12T14:20:26.536Z,10.30
2023-02-12T14:23:02.606Z,9.85
2023-02-12T14:25:40.042Z,11.30
2023-02-12T14:28:21.419Z,10.55
2023-02-12T14:31:20.865Z,10.68
2023-02-12T14:34:08.865Z,10.63
2023-02-12T14:36:39.049Z,10.35
2023-02-12T14:39:29.572Z,10.50
2023-02-12T14:42:16.085Z,9.57
2023-02-12T14:44:48.426Z,10.18
2023-02-12T14:47:35.041Z,9.45
2023-02-12T14:50:16.934Z,10.30
2023-02-12T14:52:53.122Z,9.90
2023-02-12T14:55:22.317Z,9.07
2023-02-12T14:57:49.524Z,10.35
2023-02-12T15:00:38.559Z,10.00
2023-02-12T15:03:14.322Z,9.23
2023-02-12T15:05:54.891Z,9.60
2023-02-12T15:08:51.495Z,9.40
2023-02-12T15:11:33.810Z,11.85
2023-02-12T15:14:05.850Z,10.20
2023-02-12T15:16:40.157Z,11.65
2023-02-12T15:19:35.059Z,11.45
2023-02-12T15:22:01.918Z,11.68
2023-02-12T15:24:28.752Z,12.20
2023-02-12T15:26:58.956Z,12.73
2023-02-12T15:29:29.673Z,13.55
2023-02-12T15:31:59.608Z,14.02
2023-02-12T15:34:33.304Z,14.40
2023-02-12T15:37:04.949Z,16.15
2023-02-12T15:39:44.271Z,14.82
2023-02-12T15:45:16.892Z,13.68
2023-02-12T15:47:45.973Z,14.05
2023-02-12T15:50:15.897Z,14.73
2023-02-12T15:52:45.589Z,13.10
2023-02-12T15:55:36.040Z,13.07
2023-02-12T16:00:53.606Z,13.48
2023-02-12T16:03:25.253Z,12.75
2023-02-12T16:06:03.279Z,12.77
2023-02-12T16:08:33.228Z,13.50
2023-02-12T16:11:13.607Z,12.60
2023-02-12T16:13:48.466Z,12.15
2023-02-12T16:16:15.217Z,12.65
2023-02-12T16:18:43.446Z,12.57
2023-02-12T16:21:20.687Z,12.40
2023-02-12T16:23:59.451Z,12.10
2023-02-12T16:26:27.208Z,11.05
2023-02-12T16:28:56.777Z,11.90
2023-02-12T16:31:27.279Z,12.63
2023-02-12T16:33:59.226Z,12.52
2023-02-12T16:36:25.812Z,12.25
2023-02-12T16:39:04.586Z,12.38
2023-02-12T16:41:52.674Z,11.98
2023-02-12T16:44:26.477Z,10.63
2023-02-12T16:46:56.874Z,11.38
2023-02-12T16:49:26.238Z,10.75
2023-02-12T16:54:32.334Z,11.27
2023-02-12T16:56:59.868Z,10.90
2023-02-12T16:59:27.167Z,10.40
2023-02-12T17:02:19.847Z,10.27
2023-02-12T17:04:46.584Z,10.50
2023-02-12T17:07:22.905Z,10.48
2023-02-12T17:09:50.127Z,10.73
2023-02-12T17:12:17.454Z,9.52
2023-02-12T17:14:44.253Z,9.63
2023-02-12T17:17:11.078Z,10.02
2023-02-12T17:19:38.021Z,9.77
2023-02-12T17:22:06.505Z,10.48
2023-02-12T17:24:36.304Z,11.20
2023-02-12T17:27:03.133Z,10.10
2023-02-12T17:29:30.732Z,10.88
2023-02-12T17:31:57.935Z,10.07
2023-02-12T17:34:25.345Z,9.82
2023-02-12T17:36:52.421Z,9.25
2023-02-12T17:39:20.091Z,9.13
2023-02-12T17:41:47.372Z,8.48
2023-02-12T17:44:15.532Z,10.00
2023-02-12T17:46:42.987Z,9.35
2023-02-12T17:49:10.373Z,9.68
2023-02-12T17:51:37.688Z,9.02
2023-02-12T17:54:05.048Z,9.63
2023-02-12T17:56:31.894Z,9.30
2023-02-12T17:58:58.727Z,9.00
2023-02-12T18:01:25.739Z,8.38
2023-02-12T18:03:54.600Z,8.55
2023-02-12T18:06:26.066Z,8.93
2023-02-12T18:08:53.147Z,7.88
2023-02-12T18:11:20.409Z,8.63
2023-02-12T18:13:47.286Z,7.88
2023-02-12T18:16:14.842Z,8.25
2023-02-12T18:18:41.503Z,8.70
2023-02-12T18:21:14.350Z,9.23
2023-02-12T18:23:41.334Z,9.25
2023-02-12T18:26:10.463Z,8.30
2023-02-12T18:28:37.601Z,8.23
2023-02-12T18:31:05.687Z,8.00
2023-02-12T18:33:33.162Z,8.68
2023-02-12T18:36:08.779Z,8.00
2023-02-12T18:38:37.802Z,8.45
2023-02-12T18:41:16.844Z,8.23
2023-02-12T18:43:44.107Z,8.57
2023-02-12T18:46:13.842Z,8.68
2023-02-12T18:48:40.843Z,8.73
2023-02-12T18:51:09.090Z,8.77
2023-02-12T18:53:35.716Z,7.85
2023-02-12T18:56:07.990Z,8.63
2023-02-12T18:58:35.759Z,8.40
2023-02-12T19:01:12.873Z,8.20
2023-02-12T19:03:39.839Z,7.43
2023-02-12T19:06:06.679Z,7.95
2023-02-12T19:08:33.460Z,8.40
2023-02-12T19:11:00.267Z,8.10
2023-02-12T19:13:27.147Z,7.63
2023-02-12T19:15:53.888Z,8.27
2023-02-12T19:18:20.613Z,7.95
2023-02-12T19:20:47.262Z,7.25
2023-02-12T19:23:13.989Z,7.50
2023-02-12T19:25:59.485Z,7.68
2023-02-12T19:28:26.460Z,8.38
2023-02-12T19:30:53.345Z,7.20
2023-02-12T19:33:32.188Z,7.32
2023-02-12T19:35:59.003Z,7.70
2023-02-12T19:38:25.808Z,7.15
2023-02-12T19:41:01.172Z,8.15
2023-02-12T19:43:27.851Z,7.57
2023-02-12T19:45:54.559Z,7.85
2023-02-12T19:48:21.233Z,7.68
2023-02-12T19:50:47.832Z,7.95
2023-02-12T19:53:14.661Z,7.25
2023-02-12T19:55:41.367Z,7.18
2023-02-12T19:58:09.437Z,7.85
2023-02-12T20:00:36.290Z,8.15
2023-02-12T20:03:03.060Z,7.80
2023-02-12T20:05:29.946Z,7.60
2023-02-12T20:07:56.837Z,8.18
2023-02-12T20:10:23.657Z,7.55
2023-02-12T20:12:50.418Z,7.40
2023-02-12T20:15:17.063Z,7.95
2023-02-12T20:17:43.905Z,7.55
2023-02-12T20:20:11.575Z,7.97
2023-02-12T20:22:38.642Z,8.15
2023-02-12T20:25:05.637Z,7.93
2023-02-12T20:27:33.898Z,7.82
2023-02-12T20:30:00.536Z,8.10
2023-02-12T20:32:27.124Z,8.30
2023-02-12T20:35:10.274Z,7.53
2023-02-12T20:37:36.983Z,7.45
2023-02-12T20:40:05.080Z,7.88
2023-02-12T20:42:31.811Z,7.47
2023-02-12T20:44:58.606Z,8.13
2023-02-12T20:47:28.779Z,7.63
2023-02-12T20:49:55.981Z,8.35
2023-02-12T20:52:23.964Z,7.90
2023-02-12T20:54:51.261Z,7.50
2023-02-12T20:57:18.077Z,8.25
2023-02-12T20:59:44.689Z,7.35
2023-02-12T21:02:11.972Z,7.05
2023-02-12T21:04:38.619Z,7.75
2023-02-12T21:07:05.421Z,7.70
2023-02-12T21:09:32.121Z,7.90
2023-02-12T21:11:59.218Z,7.50
2023-02-12T21:14:26.587Z,7.65
2023-02-12T21:16:55.186Z,7.60
2023-02-12T21:19:22.353Z,7.53
2023-02-12T21:21:49.016Z,8.05
2023-02-12T21:24:18.554Z,7.10
2023-02-12T21:26:45.406Z,7.72
2023-02-12T21:29:12.086Z,7.28
2023-02-12T21:31:57.272Z,8.27
2023-02-12T21:34:24.356Z,8.25
2023-02-12T21:36:54.687Z,7.90
2023-02-12T21:39:27.571Z,7.68
2023-02-12T21:42:03.104Z,8.35
2023-02-12T21:44:32.045Z,7.03
2023-02-12T21:46:59.001Z,7.30
2023-02-12T21:49:27.749Z,7.38
2023-02-12T21:52:01.956Z,7.32
2023-02-12T21:54:30.075Z,7.05
2023-02-12T21:57:01.632Z,7.78
2023-02-12T21:59:31.797Z,8.23
2023-02-12T22:01:59.469Z,7.30
2023-02-12T22:04:26.484Z,7.93
2023-02-12T22:06:54.005Z,7.53
2023-02-12T22:09:22.537Z,6.72
2023-02-12T22:11:51.972Z,7.63
2023-02-12T22:14:19.412Z,7.32
2023-02-12T22:16:47.393Z,6.90
2023-02-12T22:19:14.444Z,7.15
2023-02-12T22:21:42.628Z,7.70
2023-02-12T22:24:12.271Z,7.15
2023-02-12T22:26:39.050Z,7.32
2023-02-12T22:29:08.454Z,8.00
2023-02-12T22:34:07.766Z,6.85
2023-02-12T22:36:36.764Z,7.50
2023-02-12T22:39:05.301Z,7.63
2023-02-12T22:41:32.259Z,8.13
2023-02-12T22:44:00.755Z,6.65
2023-02-12T22:46:27.733Z,6.37
2023-02-12T22:48:54.454Z,6.80
2023-02-12T22:51:31.700Z,6.75
2023-02-12T22:53:59.074Z,6.50
2023-02-12T22:56:26.867Z,6.97
2023-02-12T22:58:58.088Z,6.55
2023-02-12T23:01:25.718Z,6.07
2023-02-12T23:03:52.651Z,6.90
2023-02-12T23:06:22.868Z,7.00
2023-02-12T23:08:51.437Z,6.60
2023-02-12T23:11:18.953Z,6.38
2023-02-12T23:13:46.358Z,6.40
2023-02-12T23:16:13.339Z,7.00
2023-02-12T23:18:40.001Z,6.80
2023-02-12T23:21:06.653Z,7.05
2023-02-12T23:23:35.974Z,6.68
2023-02-12T23:28:29.803Z,6.82
2023-02-12T23:30:57.387Z,6.90
2023-02-12T23:33:24.481Z,7.43
2023-02-12T23:35:51.256Z,6.80
2023-02-12T23:38:17.983Z,6.97
2023-02-12T23:40:44.843Z,7.03
2023-02-12T23:43:11.624Z,7.18
2023-02-12T23:45:39.424Z,7.10
2023-02-12T23:48:06.245Z,6.82
2023-02-12T23:50:33.032Z,7.15
2023-02-12T23:52:59.750Z,6.75
2023-02-12T23:55:26.764Z,7.32
2023-02-12T23:57:53.738Z,7.13
